createdAt,value
2022-11-03T10:30:25.500Z,10.48
2022-11-03T10:32:51.980Z,10.70
2022-11-03T10:35:35.473Z,9.98
2022-11-03T10:38:30.653Z,9.82
2022-11-03T10:41:10.548Z,10.15
2022-11-03T10:46:50.246Z,9.77
2022-11-03T10:49:19.753Z,10.75
2022-11-03T10:51:52.680Z,10.60
2022-11-03T10:54:22.875Z,10.95
2022-11-03T10:56:51.051Z,11.95
2022-11-03T10:59:19.070Z,12.40
2022-11-03T11:01:46.247Z,12.23
2022-11-03T11:04:17.870Z,10.73
2022-11-03T11:06:46.309Z,11.93
2022-11-03T11:09:17.567Z,11.65
2022-11-03T11:12:16.523Z,11.35
2022-11-03T11:14:54.260Z,12.10
2022-11-03T11:17:45.635Z,10.88
2022-11-03T11:20:21.611Z,10.05
2022-11-03T11:22:49.431Z,11.40
2022-11-03T11:25:18.700Z,10.25
2022-11-03T11:27:45.216Z,9.25
2022-11-03T11:30:20.672Z,10.00
2022-11-03T11:32:50.082Z,8.60
2022-11-03T11:37:44.116Z,8.50
2022-11-03T11:40:45.521Z,7.13
2022-11-03T11:43:13.386Z,7.22
2022-11-03T11:46:17.642Z,7.45
2022-11-03T11:48:44.269Z,7.30
2022-11-03T11:51:12.207Z,8.77
2022-11-03T11:53:43.995Z,8.15
2022-11-03T11:56:14.020Z,7.30
2022-11-03T11:58:46.510Z,8.10
2022-11-03T12:01:21.911Z,7.53
2022-11-03T12:03:49.956Z,9.02
2022-11-03T12:06:16.838Z,8.40
2022-11-03T12:08:44.007Z,8.02
2022-11-03T12:11:14.119Z,7.55
2022-11-03T12:13:40.559Z,7.00
2022-11-03T12:16:07.080Z,6.55
2022-11-03T12:18:50.205Z,6.30
2022-11-03T12:21:46.209Z,7.88
2022-11-03T12:24:32.327Z,5.95
2022-11-03T12:27:03.028Z,5.53
2022-11-03T12:29:29.912Z,5.50
2022-11-03T12:31:56.545Z,5.63
2022-11-03T12:34:23.124Z,6.07
2022-11-03T12:36:54.759Z,7.15
2022-11-03T12:39:22.699Z,7.57
2022-11-03T12:41:49.151Z,6.35
2022-11-03T12:44:16.100Z,5.63
2022-11-03T12:46:42.787Z,6.95
2022-11-03T12:49:09.301Z,7.15
2022-11-03T12:51:35.779Z,7.22
2022-11-03T12:54:02.334Z,6.50
2022-11-03T12:56:28.791Z,7.53
2022-11-03T12:58:55.587Z,4.38
2022-11-03T13:01:22.281Z,3.35
2022-11-03T13:03:48.935Z,3.03
2022-11-03T13:06:15.640Z,6.47
2022-11-03T13:08:42.194Z,5.00
2022-11-03T13:11:28.635Z,6.05
2022-11-03T13:13:55.948Z,3.78
2022-11-03T13:16:22.986Z,6.95
2022-11-03T13:18:49.520Z,4.82
2022-11-03T13:21:16.215Z,8.50
2022-11-03T13:23:42.735Z,6.57
2022-11-03T13:26:09.622Z,5.28
2022-11-03T13:28:36.519Z,7.78
2022-11-03T13:31:03.113Z,5.57
2022-11-03T13:33:29.618Z,5.07
2022-11-03T13:35:56.208Z,3.45
2022-11-03T13:38:22.746Z,3.15
2022-11-03T13:40:59.161Z,5.25
2022-11-03T13:43:30.229Z,3.92
2022-11-03T13:46:02.468Z,4.65
2022-11-03T13:51:17.698Z,4.47
2022-11-03T13:56:31.892Z,3.75
2022-11-03T14:01:46.197Z,30.00
2022-11-03T14:06:59.364Z,6.10
2022-11-03T14:09:25.976Z,5.38
2022-11-03T14:12:10.814Z,6.65
2022-11-03T14:14:37.462Z,5.18
2022-11-03T14:17:03.982Z,7.28
2022-11-03T14:19:37.888Z,4.80
2022-11-03T14:22:06.323Z,6.45
2022-11-03T14:24:32.897Z,6.85
2022-11-03T14:26:59.411Z,11.68
2022-11-03T14:29:27.060Z,12.70
2022-11-03T14:31:53.573Z,15.85
2022-11-03T14:34:20.184Z,13.02
2022-11-03T14:36:46.725Z,10.85
2022-11-03T14:39:13.264Z,13.88
2022-11-03T14:41:58.211Z,16.15
2022-11-03T14:44:24.762Z,15.65
2022-11-03T14:46:51.239Z,13.07
2022-11-03T14:49:17.794Z,12.65
2022-11-03T14:51:44.475Z,13.60
2022-11-03T14:54:11.017Z,12.93
2022-11-03T14:56:37.562Z,12.18
2022-11-03T14:59:04.046Z,13.63
2022-11-03T15:01:30.867Z,13.32
2022-11-03T15:03:57.721Z,13.25
2022-11-03T15:06:25.094Z,15.52
2022-11-03T15:08:56.187Z,19.80
2022-11-03T15:11:23.244Z,14.23
2022-11-03T15:13:52.302Z,15.15
2022-11-03T15:16:19.190Z,31.85
2022-11-03T15:18:45.669Z,26.90
2022-11-03T15:21:12.218Z,19.38
2022-11-03T15:26:25.365Z,26.23
2022-11-03T15:28:51.929Z,19.77
2022-11-03T15:31:18.495Z,22.73
2022-11-03T15:33:44.954Z,21.92
2022-11-03T15:36:12.230Z,21.27
2022-11-03T15:38:38.812Z,18.45
2022-11-03T15:41:18.947Z,22.38
2022-11-03T15:43:49.835Z,18.08
2022-11-03T15:46:18.138Z,20.83
2022-11-03T15:48:45.434Z,24.50
2022-11-03T15:51:12.315Z,25.75
2022-11-03T15:53:39.735Z,26.50
2022-11-03T15:56:06.940Z,57.38
2022-11-03T15:58:34.480Z,58.38
2022-11-03T16:01:04.679Z,44.47
2022-11-03T16:03:32.061Z,40.97
2022-11-03T16:05:59.438Z,33.45
2022-11-03T16:08:26.155Z,32.25
2022-11-03T16:10:57.614Z,29.73
2022-11-03T16:13:24.895Z,27.75
2022-11-03T16:15:51.834Z,28.23
2022-11-03T16:18:18.414Z,26.00
2022-11-03T16:20:44.883Z,28.02
2022-11-03T16:23:11.424Z,28.17
2022-11-03T16:25:38.084Z,28.85
2022-11-03T16:28:05.058Z,27.90
2022-11-03T16:30:32.003Z,28.50
2022-11-03T16:32:58.521Z,24.90
2022-11-03T16:35:25.058Z,29.63
2022-11-03T16:37:51.583Z,29.27
2022-11-03T16:40:19.886Z,29.55
2022-11-03T16:42:47.354Z,25.95
2022-11-03T16:45:18.388Z,29.80
2022-11-03T16:47:46.307Z,27.45
2022-11-03T16:50:13.166Z,28.10
2022-11-03T16:52:39.737Z,35.38
2022-11-03T16:55:06.810Z,31.33
2022-11-03T16:57:33.420Z,26.58
2022-11-03T16:59:59.968Z,34.88
2022-11-03T17:02:28.028Z,33.65
2022-11-03T17:04:54.951Z,32.10
2022-11-03T17:07:21.743Z,29.52
2022-11-03T17:09:48.505Z,33.90
2022-11-03T17:12:15.047Z,41.15
2022-11-03T17:14:41.589Z,38.55
2022-11-03T17:17:08.090Z,37.03
2022-11-03T17:19:34.618Z,34.75
2022-11-03T17:22:01.088Z,31.48
2022-11-03T17:24:27.592Z,29.50
2022-11-03T17:27:13.712Z,30.90
2022-11-03T17:29:43.829Z,27.25
2022-11-03T17:34:40.303Z,29.13
2022-11-03T17:37:07.338Z,28.73
2022-11-03T17:39:37.059Z,30.33
2022-11-03T17:42:25.000Z,29.50
2022-11-03T17:44:56.619Z,31.15
2022-11-03T17:47:24.340Z,31.55
2022-11-03T17:49:51.138Z,36.13
2022-11-03T17:52:25.080Z,40.22
2022-11-03T17:54:57.400Z,36.83
2022-11-03T17:57:25.811Z,39.50
2022-11-03T17:59:57.877Z,48.40
2022-11-03T18:02:26.824Z,43.10
2022-11-03T18:05:16.857Z,38.85
2022-11-03T18:07:46.818Z,52.83
2022-11-03T18:10:13.352Z,43.38
2022-11-03T18:13:01.657Z,35.35
2022-11-03T18:15:30.537Z,31.92
2022-11-03T18:17:57.044Z,31.00
2022-11-03T18:20:29.286Z,25.60
2022-11-03T18:23:05.521Z,32.13
2022-11-03T18:25:31.998Z,29.35
2022-11-03T18:27:58.456Z,26.60
2022-11-03T18:30:25.013Z,28.52
2022-11-03T18:32:51.554Z,28.90
2022-11-03T18:35:22.625Z,34.95
2022-11-03T18:37:49.195Z,35.63
2022-11-03T18:40:15.910Z,42.35
2022-11-03T18:42:42.436Z,36.85
2022-11-03T18:45:13.961Z,38.97
2022-11-03T18:47:40.649Z,37.20
2022-11-03T18:50:08.365Z,37.33
2022-11-03T18:52:40.823Z,39.80
2022-11-03T18:55:12.057Z,42.20
2022-11-03T18:57:39.617Z,42.58
2022-11-03T19:00:14.339Z,40.28
2022-11-03T19:02:40.996Z,40.67
2022-11-03T19:05:13.331Z,49.97
2022-11-03T19:07:42.354Z,39.97
2022-11-03T19:10:13.654Z,41.53
2022-11-03T19:12:43.721Z,41.30
2022-11-03T19:17:42.703Z,41.55
2022-11-03T19:20:13.718Z,42.13
2022-11-03T19:22:40.952Z,41.50
2022-11-03T19:25:08.146Z,43.20
2022-11-03T19:27:36.592Z,39.55
2022-11-03T19:30:05.149Z,49.22
2022-11-03T19:32:40.223Z,33.63
2022-11-03T19:35:18.935Z,37.75
2022-11-03T19:37:48.532Z,37.38
2022-11-03T19:40:17.718Z,40.28
2022-11-03T19:42:45.054Z,33.33
2022-11-03T19:45:15.969Z,37.83
2022-11-03T19:50:35.857Z,32.80
2022-11-03T19:53:06.043Z,25.55
2022-11-03T19:55:41.528Z,26.02
2022-11-03T19:58:20.337Z,24.42
2022-11-03T20:00:47.658Z,24.73
2022-11-03T20:03:14.688Z,30.85
2022-11-03T20:05:46.572Z,34.35
2022-11-03T20:08:19.033Z,37.45
2022-11-03T20:10:47.667Z,42.67
2022-11-03T20:13:16.574Z,44.95
2022-11-03T20:15:43.146Z,36.80
2022-11-03T20:18:12.039Z,36.90
2022-11-03T20:20:38.688Z,40.08
2022-11-03T20:23:06.664Z,34.47
2022-11-03T20:25:35.619Z,31.88
2022-11-03T20:28:15.695Z,28.38
2022-11-03T20:33:13.690Z,35.45
2022-11-03T20:35:40.193Z,36.53
2022-11-03T20:38:11.972Z,34.10
2022-11-03T20:40:39.623Z,37.10
2022-11-03T20:43:07.507Z,40.38
2022-11-03T20:45:34.262Z,47.88
2022-11-03T20:48:01.084Z,45.78
2022-11-03T20:50:30.405Z,45.67
2022-11-03T20:52:56.872Z,43.70
2022-11-03T20:55:25.885Z,39.47
2022-11-03T20:57:53.854Z,36.70
2022-11-03T21:00:24.203Z,27.65
2022-11-03T21:02:51.849Z,27.38
2022-11-03T21:05:23.893Z,25.73
2022-11-03T21:07:50.965Z,26.95
2022-11-03T21:10:20.730Z,30.30
2022-11-03T21:15:52.286Z,27.75
2022-11-03T21:18:43.538Z,29.70
2022-11-03T21:21:11.248Z,39.17
2022-11-03T21:23:38.360Z,42.47
2022-11-03T21:26:05.590Z,39.70
2022-11-03T21:28:32.164Z,42.45
2022-11-03T21:30:58.875Z,41.33
2022-11-03T21:33:25.471Z,34.97
2022-11-03T21:35:52.261Z,36.03
2022-11-03T21:38:19.217Z,35.40
2022-11-03T21:40:50.093Z,37.30
2022-11-03T21:43:38.834Z,29.08
2022-11-03T21:46:10.619Z,34.67
2022-11-03T21:48:57.137Z,26.00
2022-11-03T21:51:24.496Z,24.38
2022-11-03T21:53:51.307Z,23.80
2022-11-03T21:56:17.828Z,22.60
2022-11-03T21:58:44.748Z,26.85
2022-11-03T22:01:11.301Z,29.45
2022-11-03T22:03:39.231Z,22.70
2022-11-03T22:06:08.793Z,23.52
2022-11-03T22:08:36.193Z,24.77
2022-11-03T22:11:22.244Z,25.40
2022-11-03T22:13:50.257Z,23.38
2022-11-03T22:16:35.438Z,25.13
2022-11-03T22:19:21.270Z,25.90
2022-11-03T22:22:06.027Z,24.50
2022-11-03T22:24:51.267Z,25.42
2022-11-03T22:27:18.063Z,25.17
2022-11-03T22:30:03.401Z,27.33
2022-11-03T22:32:30.056Z,26.60
2022-11-03T22:35:15.151Z,25.02
2022-11-03T22:37:41.673Z,23.02
2022-11-03T22:40:27.856Z,23.73
2022-11-03T22:43:13.188Z,22.85
2022-11-03T22:45:51.435Z,25.88
2022-11-03T22:48:23.213Z,23.88
2022-11-03T22:50:58.172Z,28.65
2022-11-03T22:53:43.312Z,26.30
2022-11-03T22:56:10.245Z,23.13
2022-11-03T22:58:36.772Z,24.17
2022-11-03T23:01:09.127Z,24.45
2022-11-03T23:03:37.672Z,23.65
2022-11-03T23:06:06.708Z,23.85
2022-11-03T23:08:35.325Z,21.02
2022-11-03T23:11:04.965Z,19.98
2022-11-03T23:13:31.529Z,19.27
2022-11-03T23:15:58.058Z,21.23
2022-11-03T23:18:43.090Z,20.45
2022-11-03T23:21:09.795Z,19.45
2022-11-03T23:23:57.100Z,19.30
2022-11-03T23:26:26.371Z,17.77
2022-11-03T23:28:53.387Z,21.95
2022-11-03T23:31:20.054Z,17.73
2022-11-03T23:33:46.713Z,19.17
2022-11-03T23:36:15.478Z,17.70
2022-11-03T23:38:43.144Z,20.90
2022-11-03T23:41:12.203Z,22.52
2022-11-03T23:43:39.329Z,26.10
2022-11-03T23:46:24.986Z,24.52
2022-11-03T23:48:52.786Z,29.45
2022-11-03T23:51:24.401Z,34.17
2022-11-03T23:53:51.246Z,23.63
2022-11-03T23:56:38.859Z,24.98
2022-11-03T23:59:06.426Z,31.17
